Time;durP1;ratioP1;P1;durP2;ratioP2;P2;SDS_P1;SDS_P2;PMS_P1;PMS_P2;Temp;Humidity;BMP_temperature;BMP_pressure;BME280_temperature;BME280_humidity;BME280_pressure;Samples;Min_cycle;Max_cycle;Signal;HPM_P1;HPM_P2
2023/12/18 00:01:36;;;;;;;4.13;2.60;;;;;;;18.69;56.09;102408.34;4941547;28;20181;-69
2023/12/18 00:04:03;;;;;;;4.30;2.20;;;;;;;18.69;55.99;102402.63;4931153;28;20247;-70
2023/12/18 00:06:32;;;;;;;4.53;2.47;;;;;;;18.70;56.22;102403.44;4931908;29;20195;-70
2023/12/18 00:08:57;;;;;;;3.77;2.57;;;;;;;18.71;55.94;102397.41;4915220;29;20981;-70
2023/12/18 00:11:23;;;;;;;4.50;2.73;;;;;;;18.69;56.10;102396.91;4950869;29;20494;-69
2023/12/18 00:13:48;;;;;;;6.63;3.03;;;;;;;18.67;56.38;102392.69;4935294;29;20187;-69
2023/12/18 00:16:13;;;;;;;4.60;2.47;;;;;;;18.68;56.64;102382.91;4947703;28;20198;-68
2023/12/18 00:18:39;;;;;;;4.10;2.20;;;;;;;18.70;56.08;102384.28;4935425;29;20183;-69
2023/12/18 00:21:04;;;;;;;3.00;2.50;;;;;;;18.70;56.34;102375.69;4929819;29;20187;-69
2023/12/18 00:23:30;;;;;;;5.63;2.53;;;;;;;18.66;56.51;102368.94;4900584;29;20190;-68
2023/12/18 00:25:55;;;;;;;4.10;2.37;;;;;;;18.69;56.05;102371.16;4916341;29;20507;-70
2023/12/18 00:28:20;;;;;;;2.93;2.20;;;;;;;18.62;56.37;102372.81;4932101;29;20176;-70
2023/12/18 00:30:47;;;;;;;3.73;2.63;;;;;;;18.63;55.94;102369.63;4917672;29;20674;-69
2023/12/18 00:33:13;;;;;;;4.73;2.30;;;;;;;18.61;56.39;102365.41;4970011;28;20186;-69
2023/12/18 00:35:38;;;;;;;5.43;3.07;;;;;;;18.64;56.32;102361.84;4951198;28;20459;-69
2023/12/18 00:38:03;;;;;;;4.63;2.63;;;;;;;18.59;56.71;102357.16;4949363;29;20687;-69
2023/12/18 00:40:29;;;;;;;4.00;2.47;;;;;;;18.65;56.21;102354.97;4949872;29;20181;-69
2023/12/18 00:42:54;;;;;;;3.50;2.57;;;;;;;18.61;56.66;102349.06;4949826;29;20187;-69
2023/12/18 00:45:20;;;;;;;4.17;2.87;;;;;;;18.62;56.42;102349.91;4948677;28;20203;-69
2023/12/18 00:47:45;;;;;;;3.43;2.10;;;;;;;18.61;56.55;102345.38;4940398;28;20211;-68
2023/12/18 00:50:11;;;;;;;3.70;2.33;;;;;;;18.60;56.11;102346.53;4902996;29;20212;-70
2023/12/18 00:52:36;;;;;;;4.20;2.53;;;;;;;18.57;56.18;102347.22;4916210;29;20184;-70
2023/12/18 00:55:02;;;;;;;4.17;2.50;;;;;;;18.61;56.79;102349.06;4944291;28;20551;-69
2023/12/18 00:57:28;;;;;;;5.00;2.53;;;;;;;18.59;56.66;102347.72;4934622;29;20194;-70
2023/12/18 00:59:53;;;;;;;3.10;2.23;;;;;;;18.55;56.26;102352.41;4933920;29;20681;-68
2023/12/18 01:02:19;;;;;;;3.53;2.43;;;;;;;18.53;57.06;102346.19;4964693;28;20182;-68
2023/12/18 01:04:44;;;;;;;4.03;2.40;;;;;;;18.55;56.52;102350.41;4923648;29;20548;-69
2023/12/18 01:07:10;;;;;;;4.60;2.67;;;;;;;18.54;56.85;102336.41;4934546;29;20239;-69
2023/12/18 01:09:35;;;;;;;3.23;2.10;;;;;;;18.53;56.85;102340.47;4932908;29;20203;-69
2023/12/18 01:12:01;;;;;;;4.30;2.30;;;;;;;18.51;56.89;102343.66;4950162;29;20565;-69
2023/12/18 01:14:26;;;;;;;3.63;2.30;;;;;;;18.53;56.75;102335.59;4932341;28;20650;-69
2023/12/18 01:16:52;;;;;;;3.50;2.47;;;;;;;18.51;57.07;102332.19;4936681;29;20194;-69
2023/12/18 01:19:18;;;;;;;4.40;2.57;;;;;;;18.49;56.77;102331.69;4937963;29;20187;-70
2023/12/18 01:21:43;;;;;;;4.10;2.43;;;;;;;18.50;56.48;102330.53;4954299;29;20585;-69
2023/12/18 01:24:09;;;;;;;5.93;2.57;;;;;;;18.51;56.84;102332.19;4934918;29;20192;-71
2023/12/18 01:26:37;;;;;;;4.73;2.77;;;;;;;18.52;56.36;102330.19;4937799;29;20186;-71
2023/12/18 01:29:06;;;;;;;5.00;2.43;;;;;;;18.50;56.61;102324.81;4937598;29;20709;-70
2023/12/18 01:31:32;;;;;;;3.97;2.37;;;;;;;18.49;56.79;102325.97;4943097;28;20575;-70
2023/12/18 01:33:57;;;;;;;2.80;1.90;;;;;;;18.50;57.05;102324.81;4946122;29;20467;-68
2023/12/18 01:36:23;;;;;;;3.17;2.20;;;;;;;18.47;57.26;102327.50;4920907;29;20189;-70
2023/12/18 01:38:48;;;;;;;4.70;2.10;;;;;;;18.46;56.48;102318.06;4950383;28;20227;-74
2023/12/18 01:41:14;;;;;;;3.50;2.30;;;;;;;18.47;56.97;102316.88;4919645;29;20199;-74
2023/12/18 01:43:39;;;;;;;3.83;1.93;;;;;;;18.47;56.75;102304.59;4934257;28;20190;-74
2023/12/18 01:46:04;;;;;;;4.67;2.70;;;;;;;18.50;56.48;102310.50;4942858;28;20193;-74
2023/12/18 01:48:30;;;;;;;5.17;2.63;;;;;;;18.47;56.61;102301.75;4955972;28;20195;-74
2023/12/18 01:50:56;;;;;;;3.27;2.40;;;;;;;18.49;56.75;102311.69;4956242;28;20181;-74
2023/12/18 01:53:36;;;;;;;4.50;2.23;;;;;;;18.44;57.04;102308.97;4964629;28;20183;-73
2023/12/18 01:56:02;;;;;;;2.53;1.83;;;;;;;18.47;56.44;102307.47;4938566;29;20938;-73
2023/12/18 01:58:28;;;;;;;3.17;1.90;;;;;;;18.45;57.33;102306.94;4934663;28;20435;-73
2023/12/18 02:00:54;;;;;;;4.10;2.10;;;;;;;18.44;56.93;102302.41;4953341;28;20187;-75
2023/12/18 02:03:19;;;;;;;4.90;2.53;;;;;;;18.45;56.91;102310.66;4963057;28;20475;-74
2023/12/18 02:05:45;;;;;;;4.07;2.20;;;;;;;18.46;56.79;102308.66;4929757;29;20284;-74
2023/12/18 02:08:10;;;;;;;2.83;2.23;;;;;;;18.43;56.73;102310.16;4925801;29;20190;-74
2023/12/18 02:10:35;;;;;;;4.30;2.20;;;;;;;18.44;56.68;102313.84;4951381;28;20222;-74
2023/12/18 02:13:01;;;;;;;5.80;2.20;;;;;;;18.42;56.87;102302.72;4935799;29;20198;-74
2023/12/18 02:15:26;;;;;;;3.13;2.13;;;;;;;18.41;56.82;102298.19;4936449;29;20213;-74
2023/12/18 02:17:52;;;;;;;3.50;2.70;;;;;;;18.40;57.20;102299.38;4932689;29;20183;-74
2023/12/18 02:20:17;;;;;;;3.97;2.23;;;;;;;18.41;56.82;102298.19;4951919;29;20226;-74
2023/12/18 02:22:46;;;;;;;3.17;1.97;;;;;;;18.39;57.13;102305.41;4935285;29;20159;-74
2023/12/18 02:25:11;;;;;;;3.53;1.93;;;;;;;18.41;56.70;102297.38;4967579;28;20234;-74
2023/12/18 02:27:37;;;;;;;3.70;2.20;;;;;;;18.43;56.64;102293.00;4919153;29;20455;-74
2023/12/18 02:30:02;;;;;;;3.03;2.30;;;;;;;18.40;56.87;102290.78;4900422;29;20212;-74
2023/12/18 02:32:28;;;;;;;3.00;2.20;;;;;;;18.39;56.79;102288.25;4939755;28;20611;-74
2023/12/18 02:34:53;;;;;;;4.83;2.37;;;;;;;18.41;56.36;102277.34;4950944;29;20210;-74
2023/12/18 02:37:19;;;;;;;6.97;2.60;;;;;;;18.40;56.50;102273.63;4950301;28;20702;-74
2023/12/18 02:39:44;;;;;;;3.80;2.40;;;;;;;18.39;56.73;102280.53;4934364;29;20212;-74
2023/12/18 02:42:10;;;;;;;3.23;2.07;;;;;;;18.39;56.35;102276.81;4951518;29;20923;-74
2023/12/18 02:44:35;;;;;;;4.83;2.37;;;;;;;18.38;56.29;102276.00;4951652;29;20946;-74
2023/12/18 02:47:01;;;;;;;3.70;2.20;;;;;;;18.39;56.81;102271.09;4933191;29;20226;-74
2023/12/18 02:49:26;;;;;;;4.10;2.03;;;;;;;18.38;57.10;102275.13;4934987;29;20199;-74
2023/12/18 02:51:51;;;;;;;6.13;2.53;;;;;;;18.35;57.17;102262.34;4932460;29;20541;-74
2023/12/18 02:54:17;;;;;;;3.30;1.97;;;;;;;18.36;56.65;102266.06;4911524;29;20195;-74
2023/12/18 02:56:42;;;;;;;3.10;2.40;;;;;;;18.34;56.85;102263.53;4932711;29;20636;-74
2023/12/18 02:59:08;;;;;;;2.80;1.80;;;;;;;18.35;56.33;102262.34;4936602;28;20632;-74
2023/12/18 03:01:35;;;;;;;2.93;1.93;;;;;;;18.37;56.55;102262.03;4929553;28;20177;-73
2023/12/18 03:04:00;;;;;;;3.30;2.10;;;;;;;18.35;56.15;102255.78;4945077;29;20187;-74
2023/12/18 03:06:26;;;;;;;3.23;2.20;;;;;;;18.37;56.60;102254.25;4951447;29;20934;-73
2023/12/18 03:08:52;;;;;;;4.90;2.20;;;;;;;18.33;57.19;102249.56;4935772;29;20234;-74
2023/12/18 03:11:17;;;;;;;3.17;2.30;;;;;;;18.37;56.45;102253.44;4918099;28;20196;-75
2023/12/18 03:13:42;;;;;;;3.37;2.20;;;;;;;18.33;56.73;102253.28;4949065;29;20187;-73
2023/12/18 03:16:08;;;;;;;2.87;1.90;;;;;;;18.31;56.63;102252.72;4951593;28;20175;-74
2023/12/18 03:18:33;;;;;;;3.03;1.70;;;;;;;18.34;56.36;102256.94;4949413;28;20190;-74
2023/12/18 03:20:59;;;;;;;4.00;2.30;;;;;;;18.31;56.35;102258.44;4919291;29;20175;-74
2023/12/18 03:23:24;;;;;;;3.70;2.07;;;;;;;18.32;56.62;102259.28;4950090;29;20273;-73
2023/12/18 03:25:49;;;;;;;4.10;2.43;;;;;;;18.31;56.52;102257.59;4939623;28;20262;-73
2023/12/18 03:28:17;;;;;;;5.40;2.00;;;;;;;18.29;57.21;102254.22;4915140;29;20183;-73
2023/12/18 03:30:43;;;;;;;2.70;1.90;;;;;;;18.32;56.00;102247.84;4903386;29;20257;-74
2023/12/18 03:33:09;;;;;;;3.63;1.90;;;;;;;18.33;56.57;102250.41;4967751;28;20429;-74
2023/12/18 03:35:34;;;;;;;2.40;1.80;;;;;;;18.33;56.40;102255.28;4949234;28;20210;-74
2023/12/18 03:37:59;;;;;;;4.20;2.20;;;;;;;18.33;56.30;102253.28;4910541;29;20235;-73
2023/12/18 03:40:25;;;;;;;2.83;1.73;;;;;;;18.28;56.73;102243.97;4907099;29;20170;-74
2023/12/18 03:42:50;;;;;;;3.70;2.30;;;;;;;18.31;56.28;102247.00;4916836;29;20191;-73
2023/12/18 03:45:16;;;;;;;3.83;2.03;;;;;;;18.30;56.03;102245.31;4930449;29;20561;-74
2023/12/18 03:47:41;;;;;;;3.37;2.00;;;;;;;18.30;56.61;102247.31;4918031;29;20258;-74
2023/12/18 03:50:07;;;;;;;2.60;1.90;;;;;;;18.27;56.37;102237.38;4933916;29;20594;-74
2023/12/18 03:52:32;;;;;;;2.80;1.90;;;;;;;18.27;56.28;102245.13;4912239;29;20362;-73
2023/12/18 03:54:58;;;;;;;3.13;2.10;;;;;;;18.27;56.50;102245.13;4946409;28;20191;-73
2023/12/18 03:57:24;;;;;;;3.07;2.40;;;;;;;18.28;56.69;102241.94;4916341;28;20179;-74
2023/12/18 03:59:49;;;;;;;3.63;2.20;;;;;;;18.27;56.63;102234.53;4934378;29;20183;-72
2023/12/18 04:02:15;;;;;;;2.90;1.93;;;;;;;18.28;56.25;102243.97;4962958;28;20557;-72
2023/12/18 04:04:40;;;;;;;3.17;1.87;;;;;;;18.33;56.30;102233.25;4970092;28;20198;-72
2023/12/18 04:07:06;;;;;;;3.93;2.00;;;;;;;18.24;56.29;102240.94;4944423;28;20187;-72
2023/12/18 04:09:31;;;;;;;3.83;1.90;;;;;;;18.24;57.08;102243.78;4934654;29;20203;-72
2023/12/18 04:11:57;;;;;;;2.77;2.07;;;;;;;18.23;56.27;102230.69;4934767;29;20167;-72
2023/12/18 04:14:22;;;;;;;3.40;2.10;;;;;;;18.22;56.46;102231.81;4933001;28;20529;-72
2023/12/18 04:16:47;;;;;;;3.20;2.10;;;;;;;18.21;56.48;102247.28;4931442;29;20845;-72
2023/12/18 04:19:13;;;;;;;2.53;1.80;;;;;;;18.20;56.24;102239.91;4933408;28;20187;-72
2023/12/18 04:21:38;;;;;;;3.07;2.03;;;;;;;18.18;56.42;102236.53;4930529;29;20190;-73
2023/12/18 04:24:04;;;;;;;3.23;1.73;;;;;;;18.23;56.58;102232.69;4899060;29;20243;-72
2023/12/18 04:26:30;;;;;;;2.97;1.90;;;;;;;18.20;56.64;102233.31;4929997;29;20164;-72
2023/12/18 04:28:55;;;;;;;3.40;2.30;;;;;;;18.17;56.45;102226.25;4925510;29;20261;-73
2023/12/18 04:31:20;;;;;;;3.97;2.30;;;;;;;18.20;56.39;102231.31;4937121;28;20189;-72
2023/12/18 04:33:46;;;;;;;3.40;2.20;;;;;;;18.20;56.49;102234.19;4965449;28;20202;-73
2023/12/18 04:36:11;;;;;;;4.03;2.70;;;;;;;18.18;55.93;102227.13;4948710;29;20191;-72
2023/12/18 04:38:37;;;;;;;2.67;2.03;;;;;;;18.16;56.37;102235.19;4931444;29;20734;-72
2023/12/18 04:41:02;;;;;;;3.10;2.00;;;;;;;18.16;57.20;102236.00;4948935;29;20179;-72
2023/12/18 04:43:29;;;;;;;4.70;2.40;;;;;;;18.15;56.49;102234.34;4925989;29;20286;-72
2023/12/18 04:45:54;;;;;;;3.23;2.20;;;;;;;18.22;56.60;102228.13;4913755;28;20852;-72
2023/12/18 04:48:20;;;;;;;2.80;1.93;;;;;;;18.15;56.59;102227.75;4940341;29;20434;-72
2023/12/18 04:50:45;;;;;;;2.90;1.93;;;;;;;18.15;57.00;102242.91;4967542;28;20265;-72
2023/12/18 04:53:11;;;;;;;3.17;2.33;;;;;;;18.16;56.02;102244.59;4934994;29;20543;-72
2023/12/18 04:55:36;;;;;;;2.87;2.00;;;;;;;18.15;56.61;102242.91;4936296;29;20636;-73
2023/12/18 04:58:01;;;;;;;3.53;2.50;;;;;;;18.16;55.87;102238.06;4955672;28;20547;-73
2023/12/18 05:00:27;;;;;;;2.73;1.87;;;;;;;18.16;55.98;102236.00;4938014;29;20207;-72
2023/12/18 05:02:52;;;;;;;3.20;2.03;;;;;;;18.13;56.37;102232.97;4928543;29;20188;-72
2023/12/18 05:05:18;;;;;;;2.90;1.70;;;;;;;18.15;56.18;102230.63;4938079;29;20171;-72
2023/12/18 05:07:43;;;;;;;2.90;2.00;;;;;;;18.13;56.28;102236.69;4935491;29;20198;-73
2023/12/18 05:10:09;;;;;;;3.50;2.27;;;;;;;18.09;56.47;102240.53;4937345;29;20897;-74
2023/12/18 05:12:34;;;;;;;4.33;2.27;;;;;;;18.08;56.87;102241.72;4921919;29;20301;-74
2023/12/18 05:15:00;;;;;;;2.90;2.17;;;;;;;18.11;56.15;102241.06;4924600;29;20199;-74
2023/12/18 05:17:25;;;;;;;2.73;1.83;;;;;;;18.10;56.15;102243.06;4904891;29;20186;-73
2023/12/18 05:19:50;;;;;;;3.33;2.40;;;;;;;18.11;56.12;102246.78;4949624;28;20180;-73
2023/12/18 05:22:16;;;;;;;2.30;1.80;;;;;;;18.07;56.46;102246.56;4937008;29;20174;-73
2023/12/18 05:24:41;;;;;;;2.50;1.80;;;;;;;18.10;56.55;102242.22;4949226;29;20196;-74
2023/12/18 05:27:07;;;;;;;2.83;1.97;;;;;;;18.08;56.15;102239.72;4946730;28;20249;-74
2023/12/18 05:29:32;;;;;;;3.33;2.03;;;;;;;18.11;56.70;102241.06;4937223;29;20500;-74
2023/12/18 05:31:57;;;;;;;4.43;2.47;;;;;;;18.09;56.52;102240.53;4918367;29;20190;-73
2023/12/18 05:34:23;;;;;;;2.70;1.63;;;;;;;18.07;56.45;102229.41;4918321;29;20636;-74
2023/12/18 05:36:49;;;;;;;3.10;2.00;;;;;;;18.11;56.35;102239.03;4926285;29;20190;-73
2023/12/18 05:39:14;;;;;;;4.60;2.00;;;;;;;18.06;56.48;102230.59;4954049;28;20178;-74
2023/12/18 05:41:40;;;;;;;2.43;1.50;;;;;;;18.06;56.83;102236.31;4936888;29;20191;-74
2023/12/18 05:44:05;;;;;;;2.83;1.60;;;;;;;18.05;56.31;102234.63;4939719;28;20193;-74
2023/12/18 05:46:30;;;;;;;2.90;2.20;;;;;;;18.05;55.78;102233.78;4954309;28;20186;-74
2023/12/18 05:48:56;;;;;;;3.20;2.07;;;;;;;18.02;56.31;102238.16;4940045;28;20190;-74
2023/12/18 05:51:21;;;;;;;2.90;2.10;;;;;;;18.01;56.83;102238.50;4956014;28;20178;-74
2023/12/18 05:53:47;;;;;;;4.30;2.13;;;;;;;18.02;56.81;102237.31;4939597;28;20205;-74
2023/12/18 05:56:12;;;;;;;2.80;1.70;;;;;;;18.05;55.96;102240.34;4920538;28;20195;-74
2023/12/18 05:58:38;;;;;;;3.00;2.17;;;;;;;17.99;56.96;102238.81;4939659;28;20260;-74
2023/12/18 06:01:03;;;;;;;3.30;2.20;;;;;;;17.99;56.85;102235.97;4927544;28;20193;-74
2023/12/18 06:03:29;;;;;;;2.90;1.80;;;;;;;18.02;56.21;102237.31;4974802;28;20174;-74
2023/12/18 06:05:54;;;;;;;4.07;2.10;;;;;;;18.04;56.21;102241.53;4958913;28;20224;-74
2023/12/18 06:08:20;;;;;;;3.47;2.13;;;;;;;17.98;56.85;102239.16;4929836;28;20190;-75
2023/12/18 06:10:45;;;;;;;3.27;2.10;;;;;;;17.98;56.63;102248.56;4939206;28;20198;-73
2023/12/18 06:13:11;;;;;;;2.70;1.93;;;;;;;17.97;55.91;102240.31;4954671;28;20195;-73
2023/12/18 06:15:36;;;;;;;2.70;1.80;;;;;;;17.98;56.23;102242.00;4916497;29;20202;-74
2023/12/18 06:18:01;;;;;;;3.30;2.37;;;;;;;17.96;56.57;102242.34;4935520;29;20171;-75
2023/12/18 06:20:27;;;;;;;3.33;2.07;;;;;;;17.95;56.31;102237.78;4935507;28;20197;-74
2023/12/18 06:22:53;;;;;;;2.83;1.70;;;;;;;17.95;56.30;102243.50;4955104;28;20190;-74
2023/12/18 06:25:18;;;;;;;2.77;2.03;;;;;;;17.96;56.49;102238.66;4938536;28;20185;-74
2023/12/18 06:27:44;;;;;;;3.37;2.30;;;;;;;17.96;56.04;102244.38;4953368;28;20194;-73
2023/12/18 06:30:10;;;;;;;3.43;1.93;;;;;;;17.93;57.23;102242.16;4954653;28;20195;-74
2023/12/18 06:32:35;;;;;;;3.90;1.83;;;;;;;17.90;56.45;102240.81;4954460;28;20187;-74
2023/12/18 06:35:00;;;;;;;2.40;1.70;;;;;;;17.93;56.91;102230.72;4940040;28;20194;-74
2023/12/18 06:37:26;;;;;;;2.77;2.00;;;;;;;17.92;55.97;102241.34;4922357;28;20230;-74
2023/12/18 06:39:51;;;;;;;3.13;2.30;;;;;;;17.90;56.08;102237.94;4939088;28;20189;-74
2023/12/18 06:42:17;;;;;;;3.90;1.93;;;;;;;17.90;56.73;102245.69;4935944;29;20187;-75
2023/12/18 06:44:42;;;;;;;3.70;2.37;;;;;;;17.93;56.13;102251.59;4929964;28;20198;-74
2023/12/18 06:47:08;;;;;;;2.70;2.00;;;;;;;17.93;55.99;102257.28;4955172;28;20190;-74
2023/12/18 06:49:33;;;;;;;3.90;2.50;;;;;;;17.90;56.33;102263.66;4937612;28;20199;-74
2023/12/18 06:51:59;;;;;;;4.40;2.43;;;;;;;17.88;56.19;102254.59;4935273;29;20533;-74
2023/12/18 06:54:26;;;;;;;3.03;2.43;;;;;;;17.86;56.93;102256.91;4922804;28;20367;-74
2023/12/18 06:56:51;;;;;;;3.13;1.90;;;;;;;17.88;56.56;102266.00;4938245;28;20202;-73
2023/12/18 06:59:16;;;;;;;3.10;2.10;;;;;;;17.86;56.12;102268.34;4922461;28;20945;-74
2023/12/18 07:01:42;;;;;;;3.10;2.10;;;;;;;17.85;56.61;102278.09;4930303;28;20189;-74
2023/12/18 07:04:07;;;;;;;3.07;2.20;;;;;;;17.84;56.70;102270.69;4973250;28;20196;-73
2023/12/18 07:06:33;;;;;;;2.90;2.10;;;;;;;17.87;56.39;102272.06;4921542;29;20724;-74
2023/12/18 07:08:59;;;;;;;3.00;2.13;;;;;;;17.85;56.44;102272.38;4918250;28;20611;-74
2023/12/18 07:11:24;;;;;;;3.70;2.20;;;;;;;17.83;56.53;102266.16;4935620;28;20221;-74
2023/12/18 07:13:51;;;;;;;2.30;1.70;;;;;;;17.84;56.08;102266.97;4952427;28;20599;-74
2023/12/18 07:16:23;;;;;;;3.30;2.07;;;;;;;17.85;55.98;102269.53;4937340;28;20261;-73
2023/12/18 07:18:48;;;;;;;3.60;2.60;;;;;;;17.84;56.78;102270.69;4933155;29;20931;-74
2023/12/18 07:21:14;;;;;;;2.43;1.70;;;;;;;17.83;56.72;102273.88;4922631;28;20434;-74
2023/12/18 07:23:40;;;;;;;3.53;2.47;;;;;;;17.78;56.48;102272.00;4935774;28;20186;-73
2023/12/18 07:26:08;;;;;;;3.50;2.23;;;;;;;17.81;56.77;102270.50;4971329;28;20181;-73
2023/12/18 07:28:34;;;;;;;3.10;2.10;;;;;;;17.80;55.87;102269.66;4952276;28;20573;-72
2023/12/18 07:30:59;;;;;;;3.70;2.40;;;;;;;17.78;56.18;102266.31;4939343;28;20469;-72
2023/12/18 07:33:25;;;;;;;3.47;2.20;;;;;;;17.79;56.73;102278.56;4953365;28;20218;-72
2023/12/18 07:35:52;;;;;;;2.83;2.13;;;;;;;17.79;56.49;102273.69;4953420;28;20236;-72
2023/12/18 07:38:17;;;;;;;4.10;2.50;;;;;;;17.76;56.32;102280.06;4950266;29;20297;-73
2023/12/18 07:40:43;;;;;;;3.33;2.70;;;;;;;17.78;56.11;102283.44;4943064;28;21608;-72
2023/12/18 07:43:08;;;;;;;3.50;2.13;;;;;;;17.77;56.62;102292.34;4949935;29;20183;-72
2023/12/18 07:45:34;;;;;;;3.50;2.20;;;;;;;17.77;56.69;102298.03;4954094;28;20178;-72
2023/12/18 07:47:59;;;;;;;2.73;2.00;;;;;;;17.79;56.33;102301.41;4953527;28;20178;-72
2023/12/18 07:50:25;;;;;;;3.40;2.20;;;;;;;17.76;56.17;102302.91;4921806;29;20577;-72
2023/12/18 07:52:50;;;;;;;3.60;2.07;;;;;;;17.79;56.03;102295.69;4935264;29;20693;-72
2023/12/18 07:55:15;;;;;;;2.60;1.90;;;;;;;17.79;56.11;102307.13;4924577;28;20198;-73
2023/12/18 07:57:42;;;;;;;3.07;2.10;;;;;;;17.77;55.98;102303.75;4951471;29;20187;-73
2023/12/18 08:00:08;;;;;;;3.00;2.10;;;;;;;17.75;55.97;102298.38;4918854;29;20183;-73
2023/12/18 08:02:34;;;;;;;2.47;1.77;;;;;;;17.72;56.21;102296.19;4926379;29;20502;-73
2023/12/18 08:05:00;;;;;;;2.57;1.87;;;;;;;17.69;56.62;102296.81;4929841;29;20535;-73
2023/12/18 08:07:25;;;;;;;3.27;2.47;;;;;;;17.71;56.36;102305.91;4917351;29;20184;-73
2023/12/18 08:09:50;;;;;;;4.20;2.40;;;;;;;17.73;55.99;102309.28;4931781;29;20227;-73
2023/12/18 08:12:16;;;;;;;2.87;1.80;;;;;;;17.73;55.85;102302.72;4944848;28;20237;-73
2023/12/18 08:14:44;;;;;;;2.80;2.00;;;;;;;17.70;56.41;102306.25;4946932;28;20195;-72
2023/12/18 08:17:11;;;;;;;4.50;2.20;;;;;;;17.68;56.54;102300.88;4949325;29;20175;-72
2023/12/18 08:19:37;;;;;;;3.00;2.33;;;;;;;17.65;56.97;102295.78;4949777;28;20584;-73
2023/12/18 08:22:02;;;;;;;3.10;2.00;;;;;;;17.69;56.50;102301.69;4934560;29;20455;-72
2023/12/18 08:24:28;;;;;;;3.00;2.03;;;;;;;17.69;56.79;102298.81;4949747;28;20266;-73
2023/12/18 08:26:53;;;;;;;4.00;2.30;;;;;;;17.68;55.94;102300.88;4932571;29;20184;-72
2023/12/18 08:29:19;;;;;;;3.80;2.70;;;;;;;17.64;55.24;102296.09;4916077;29;20199;-73
2023/12/18 08:31:44;;;;;;;2.90;1.97;;;;;;;17.61;55.50;102294.75;4925571;29;20881;-72
2023/12/18 08:34:10;;;;;;;3.10;2.10;;;;;;;17.60;55.91;102295.09;4930693;29;20738;-72
2023/12/18 08:36:36;;;;;;;3.07;2.43;;;;;;;17.62;56.05;102302.19;4950479;29;20182;-72
2023/12/18 08:39:02;;;;;;;5.63;2.80;;;;;;;17.61;55.61;102300.47;4906805;29;20243;-73
2023/12/18 08:41:28;;;;;;;3.57;2.40;;;;;;;17.62;56.28;102293.59;4949911;29;20426;-73
2023/12/18 08:43:53;;;;;;;8.53;2.80;;;;;;;17.60;55.49;102286.53;4950084;28;21081;-73
2023/12/18 08:46:19;;;;;;;4.63;2.70;;;;;;;17.60;55.65;102278.78;4960621;28;20556;-73
2023/12/18 08:48:44;;;;;;;4.50;2.77;;;;;;;17.57;55.87;102285.19;4937776;28;20654;-73
2023/12/18 08:51:14;;;;;;;6.87;3.40;;;;;;;17.59;56.04;102279.97;4916931;29;20218;-74
2023/12/18 08:53:40;;;;;;;3.93;2.80;;;;;;;17.59;55.63;102285.69;4933631;28;20194;-73
2023/12/18 08:56:05;;;;;;;9.80;3.20;;;;;;;17.58;55.19;102283.13;4920440;29;20435;-75
2023/12/18 08:58:31;;;;;;;10.83;4.10;;;;;;;17.54;54.87;102287.81;4948297;28;20194;-72
2023/12/18 09:00:57;;;;;;;22.03;6.83;;;;;;;17.45;54.98;102284.91;4932663;28;20188;-74
2023/12/18 09:03:23;;;;;;;12.90;6.50;;;;;;;17.42;53.56;102285.56;4952383;28;20173;-74
2023/12/18 09:05:48;;;;;;;17.87;6.90;;;;;;;17.45;54.11;102284.09;4936564;28;20812;-75
2023/12/18 09:08:13;;;;;;;20.33;6.97;;;;;;;17.43;53.96;102290.13;4932489;29;20898;-75
2023/12/18 09:10:39;;;;;;;23.97;7.80;;;;;;;17.43;53.40;102287.25;4933561;29;20206;-74
2023/12/18 09:13:05;;;;;;;28.33;8.27;;;;;;;17.41;53.14;102295.28;4951711;29;20594;-75
2023/12/18 09:15:30;;;;;;;24.80;9.07;;;;;;;17.37;54.05;102296.25;4933330;28;20438;-75
2023/12/18 09:17:56;;;;;;;21.90;9.00;;;;;;;17.38;53.81;102293.06;4949810;29;20191;-76
2023/12/18 09:20:21;;;;;;;21.37;7.90;;;;;;;17.38;53.60;102289.34;4919620;29;20624;-75
2023/12/18 09:22:48;;;;;;;16.50;8.70;;;;;;;17.38;53.40;102281.66;4933440;29;20191;-74
2023/12/18 09:25:14;;;;;;;28.00;9.07;;;;;;;17.46;54.23;102282.91;4934454;29;20243;-74
2023/12/18 09:27:39;;;;;;;32.50;9.10;;;;;;;17.54;53.50;102280.09;4948734;28;20450;-75
2023/12/18 09:30:05;;;;;;;28.70;9.43;;;;;;;17.65;53.49;102284.38;4915114;29;20211;-72
2023/12/18 09:32:31;;;;;;;28.63;8.90;;;;;;;17.75;53.67;102281.22;4913121;29;20288;-73
2023/12/18 09:34:56;;;;;;;29.87;9.30;;;;;;;17.76;53.40;102279.22;4965803;28;20864;-72
2023/12/18 09:37:21;;;;;;;35.50;9.47;;;;;;;17.86;52.73;102271.19;4948650;28;20254;-72
2023/12/18 09:39:47;;;;;;;19.73;9.03;;;;;;;17.90;53.12;102265.69;4943397;29;20509;-73
2023/12/18 09:42:12;;;;;;;29.73;10.47;;;;;;;17.93;53.16;102265.88;4937363;29;20642;-72
2023/12/18 09:44:39;;;;;;;21.83;8.23;;;;;;;17.92;52.97;102271.91;4920557;29;20564;-72
2023/12/18 09:47:05;;;;;;;22.80;7.10;;;;;;;17.96;52.80;102272.94;4911824;29;20704;-72
2023/12/18 09:49:30;;;;;;;32.87;9.10;;;;;;;18.01;53.13;102264.22;4922412;29;20471;-75
2023/12/18 09:52:08;;;;;;;20.70;8.20;;;;;;;18.02;52.80;102265.91;4922862;29;20227;-74
2023/12/18 09:54:34;;;;;;;24.33;7.83;;;;;;;17.91;53.44;102264.50;4938211;29;20250;-75
2023/12/18 09:57:04;;;;;;;31.07;8.30;;;;;;;17.81;53.84;102256.22;4941824;29;20409;-75
2023/12/18 09:59:29;;;;;;;23.73;8.07;;;;;;;17.82;53.62;102260.78;4925047;29;20190;-75
2023/12/18 10:01:54;;;;;;;16.97;7.50;;;;;;;17.83;53.81;102256.72;4931061;28;20434;-75
2023/12/18 10:04:20;;;;;;;18.97;7.23;;;;;;;17.86;53.63;102254.06;4938686;29;20202;-75
2023/12/18 10:06:46;;;;;;;20.30;7.67;;;;;;;17.85;53.99;102248.69;4941880;29;20719;-75
2023/12/18 10:09:14;;;;;;;21.10;7.13;;;;;;;17.84;53.75;102246.97;4927647;29;20191;-75
2023/12/18 10:11:41;;;;;;;18.13;7.47;;;;;;;17.82;53.93;102249.34;4922993;29;20176;-75
2023/12/18 10:14:06;;;;;;;19.40;7.53;;;;;;;17.80;54.07;102243.94;4938008;29;20431;-75
2023/12/18 10:16:32;;;;;;;16.47;7.10;;;;;;;17.78;54.49;102236.88;4945805;28;20426;-74
2023/12/18 10:18:58;;;;;;;19.80;6.17;;;;;;;17.78;53.90;102234.03;4938992;29;20198;-75
2023/12/18 10:21:24;;;;;;;21.73;7.43;;;;;;;17.77;54.48;102236.06;4921363;29;20211;-74
2023/12/18 10:23:51;;;;;;;16.77;6.80;;;;;;;17.75;54.63;102234.69;4952609;28;20175;-74
2023/12/18 10:26:16;;;;;;;18.90;8.10;;;;;;;17.76;54.41;102231.50;4960778;29;20176;-75
2023/12/18 10:28:42;;;;;;;17.67;6.47;;;;;;;17.74;54.30;102225.28;4931427;29;20490;-74
2023/12/18 10:31:09;;;;;;;21.50;7.30;;;;;;;17.73;54.71;102223.59;4944663;28;20199;-74
2023/12/18 10:33:35;;;;;;;15.80;7.03;;;;;;;17.71;54.56;102214.50;4960170;28;20454;-74
2023/12/18 10:36:00;;;;;;;11.57;6.60;;;;;;;17.72;54.34;102212.50;4959680;28;20422;-74
2023/12/18 10:38:27;;;;;;;11.10;6.10;;;;;;;17.72;54.41;102218.19;4942888;29;20235;-75
2023/12/18 10:40:54;;;;;;;21.07;7.43;;;;;;;17.70;54.73;102204.25;4922014;29;20261;-75
2023/12/18 10:43:21;;;;;;;17.07;5.93;;;;;;;17.73;54.59;102200.75;4922587;28;20606;-75
2023/12/18 10:45:47;;;;;;;13.17;6.20;;;;;;;17.73;54.48;102199.88;4943880;28;20619;-73
2023/12/18 10:48:13;;;;;;;12.80;6.60;;;;;;;17.69;54.70;102191.13;4939891;28;20439;-75
2023/12/18 10:50:38;;;;;;;14.90;7.47;;;;;;;17.72;55.04;102186.78;4920050;29;20470;-74
2023/12/18 10:53:04;;;;;;;13.60;6.47;;;;;;;17.71;54.65;102185.94;4923245;29;20194;-74
2023/12/18 10:55:30;;;;;;;20.13;6.57;;;;;;;17.68;54.58;102178.03;4919783;29;20172;-75
2023/12/18 10:57:58;;;;;;;19.33;6.90;;;;;;;17.66;55.18;102188.09;4913181;29;20427;-69
2023/12/18 11:00:23;;;;;;;13.53;5.80;;;;;;;17.67;55.00;102178.34;4952403;28;20258;-69
2023/12/18 11:02:49;;;;;;;13.13;6.07;;;;;;;17.69;55.26;102174.00;4931832;29;20443;-68
2023/12/18 11:05:14;;;;;;;16.70;6.47;;;;;;;17.70;54.76;102169.16;4920663;29;20175;-69
2023/12/18 11:07:40;;;;;;;18.33;6.73;;;;;;;17.68;55.20;102174.31;4935579;29;21174;-68
2023/12/18 11:10:06;;;;;;;12.43;5.50;;;;;;;17.67;54.85;102161.22;4935971;29;20199;-69
2023/12/18 11:12:31;;;;;;;16.03;6.30;;;;;;;17.65;55.04;102160.72;4922840;29;20736;-70
2023/12/18 11:15:16;;;;;;;11.03;5.30;;;;;;;17.68;55.28;102157.19;4936412;29;20167;-68
2023/12/18 11:17:56;;;;;;;17.33;6.50;;;;;;;17.67;55.09;102159.22;4968552;28;20638;-70